createdAt,value
2022-08-04T00:03:11.035Z,100.00
2022-08-04T00:06:23.383Z,100.00
2022-08-04T00:09:37.800Z,100.00
2022-08-04T00:12:47.984Z,100.00
2022-08-04T00:15:53.779Z,100.00
2022-08-04T00:18:59.222Z,100.00
2022-08-04T00:22:05.542Z,100.00
2022-08-04T00:25:08.405Z,100.00
2022-08-04T00:28:13.840Z,100.00
2022-08-04T00:31:17.720Z,100.00
2022-08-04T00:34:21.919Z,100.00
2022-08-04T00:37:25.128Z,100.00
2022-08-04T00:40:34.181Z,100.00
2022-08-04T00:43:50.810Z,100.00
2022-08-04T00:47:05.608Z,100.00
2022-08-04T00:50:13.073Z,100.00
2022-08-04T00:53:26.868Z,100.00
2022-08-04T00:57:33.818Z,100.00
2022-08-04T01:00:44.983Z,100.00
2022-08-04T01:03:57.357Z,100.00
2022-08-04T01:07:13.479Z,100.00
2022-08-04T01:10:24.385Z,100.00
2022-08-04T01:13:57.249Z,100.00
2022-08-04T01:17:15.289Z,100.00
2022-08-04T01:20:22.212Z,100.00
2022-08-04T01:23:49.398Z,100.00
2022-08-04T01:26:58.364Z,100.00
2022-08-04T01:30:03.159Z,100.00
2022-08-04T01:33:09.973Z,100.00
2022-08-04T01:36:13.771Z,100.00
2022-08-04T01:39:34.529Z,100.00
2022-08-04T01:42:39.951Z,100.00
2022-08-04T01:45:50.587Z,100.00
2022-08-04T01:48:55.273Z,100.00
2022-08-04T01:51:58.468Z,100.00
2022-08-04T01:55:04.715Z,100.00
2022-08-04T01:58:07.852Z,100.00
2022-08-04T02:01:13.871Z,100.00
2022-08-04T02:04:23.118Z,100.00
2022-08-04T02:07:38.923Z,100.00
2022-08-04T02:10:59.657Z,100.00
2022-08-04T02:14:13.694Z,100.00
2022-08-04T02:17:29.931Z,100.00
2022-08-04T02:20:36.112Z,100.00
2022-08-04T02:23:40.945Z,100.00
2022-08-04T02:26:47.389Z,100.00
2022-08-04T02:29:56.439Z,100.00
2022-08-04T02:33:04.716Z,100.00
2022-08-04T02:36:11.858Z,100.00
2022-08-04T02:39:20.091Z,100.00
2022-08-04T02:42:23.069Z,100.00
2022-08-04T02:45:26.780Z,100.00
2022-08-04T02:48:33.319Z,100.00
2022-08-04T02:51:37.522Z,100.00
2022-08-04T02:54:42.604Z,100.00
2022-08-04T02:57:49.783Z,100.00
2022-08-04T03:00:53.048Z,100.00
2022-08-04T03:04:24.391Z,100.00
2022-08-04T03:07:59.158Z,100.00
2022-08-04T03:11:25.163Z,100.00
2022-08-04T03:15:00.385Z,100.00
2022-08-04T03:18:31.658Z,100.00
2022-08-04T03:22:09.262Z,100.00
2022-08-04T03:25:56.878Z,100.00
2022-08-04T03:29:36.138Z,100.00
2022-08-04T03:33:13.095Z,100.00
2022-08-04T03:36:49.238Z,100.00
2022-08-04T03:40:26.471Z,100.00
2022-08-04T03:44:03.567Z,100.00
2022-08-04T03:47:44.510Z,100.00
2022-08-04T03:51:32.563Z,100.00
2022-08-04T03:55:11.033Z,100.00
2022-08-04T03:58:41.548Z,100.00
2022-08-04T04:02:12.503Z,100.00
2022-08-04T04:06:03.208Z,100.00
2022-08-04T04:09:58.149Z,100.00
2022-08-04T04:13:34.146Z,100.00
2022-08-04T04:16:59.845Z,100.00
2022-08-04T04:20:19.896Z,100.00
2022-08-04T04:23:59.057Z,86.23
2022-08-04T04:27:11.050Z,81.25
2022-08-04T04:30:20.137Z,75.81
2022-08-04T04:33:43.666Z,70.48
2022-08-04T04:37:10.856Z,67.33
2022-08-04T04:40:26.045Z,65.03
2022-08-04T04:43:55.497Z,63.63
2022-08-04T04:47:07.258Z,60.57
2022-08-04T04:50:15.826Z,58.49
2022-08-04T04:53:34.224Z,57.42
2022-08-04T04:56:42.526Z,57.00
2022-08-04T04:59:50.179Z,56.87
2022-08-04T05:03:22.989Z,54.94
2022-08-04T05:06:44.941Z,53.44
2022-08-04T05:10:02.430Z,51.89
2022-08-04T05:14:36.728Z,51.17
2022-08-04T05:16:51.022Z,50.72
2022-08-04T05:20:01.567Z,48.32
2022-08-04T05:23:12.213Z,47.35
2022-08-04T05:26:19.497Z,46.68
2022-08-04T05:29:31.812Z,46.55
2022-08-04T05:32:44.607Z,45.40
2022-08-04T05:36:23.536Z,46.00
2022-08-04T05:39:21.690Z,47.21
2022-08-04T05:42:26.159Z,47.74
2022-08-04T05:45:29.936Z,50.20
2022-08-04T05:48:43.501Z,50.63
2022-08-04T05:51:48.780Z,51.39
2022-08-04T05:54:53.044Z,51.53
2022-08-04T05:57:57.886Z,51.85
2022-08-04T06:01:02.002Z,50.39
2022-08-04T06:04:11.226Z,51.49
2022-08-04T06:07:16.225Z,48.74
2022-08-04T06:10:18.958Z,48.36
2022-08-04T06:13:45.494Z,46.16
2022-08-04T06:16:56.037Z,45.16
2022-08-04T06:20:20.182Z,44.19
2022-08-04T06:23:28.587Z,42.83
2022-08-04T06:26:34.936Z,43.16
2022-08-04T06:29:41.217Z,42.87
2022-08-04T06:33:04.313Z,40.53
2022-08-04T06:36:08.919Z,41.15
2022-08-04T06:39:14.313Z,41.45
2022-08-04T06:42:21.496Z,40.93
2022-08-04T06:45:26.017Z,39.19
2022-08-04T06:48:33.279Z,39.79
2022-08-04T06:51:46.721Z,38.60
2022-08-04T06:54:54.112Z,39.04
2022-08-04T06:58:02.396Z,39.09
2022-08-04T07:01:06.339Z,38.42
2022-08-04T07:04:09.175Z,37.51
2022-08-04T07:07:12.284Z,37.77
2022-08-04T07:10:17.893Z,37.35
2022-08-04T07:13:25.663Z,36.55
2022-08-04T07:16:30.898Z,37.67
2022-08-04T07:19:33.882Z,37.10
2022-08-04T07:22:37.441Z,35.47
2022-08-04T07:26:11.942Z,35.30
2022-08-04T07:29:05.089Z,33.46
2022-08-04T07:32:08.452Z,33.30
2022-08-04T07:36:04.952Z,32.68
2022-08-04T07:38:37.830Z,32.97
2022-08-04T07:41:51.651Z,32.61
2022-08-04T07:44:54.383Z,32.37
2022-08-04T07:48:05.357Z,31.27
2022-08-04T07:51:09.348Z,30.94
2022-08-04T07:54:12.459Z,30.09
2022-08-04T07:57:19.436Z,30.94
2022-08-04T08:00:41.485Z,30.95
2022-08-04T08:03:44.614Z,30.41
2022-08-04T08:06:47.279Z,28.33
2022-08-04T08:09:50.719Z,28.51
2022-08-04T08:12:54.893Z,29.70
2022-08-04T08:15:58.404Z,28.33
2022-08-04T08:19:01.853Z,28.54
2022-08-04T08:22:06.159Z,25.84
2022-08-04T08:25:09.478Z,26.38
2022-08-04T08:28:13.637Z,27.06
2022-08-04T08:31:16.161Z,26.18
2022-08-04T08:34:27.467Z,27.08
2022-08-04T08:37:42.227Z,25.12
2022-08-04T08:40:51.898Z,25.22
2022-08-04T08:44:19.277Z,24.97
2022-08-04T08:47:58.597Z,25.81
2022-08-04T08:51:21.955Z,25.04
2022-08-04T08:55:02.688Z,24.92
2022-08-04T08:58:44.073Z,25.52
2022-08-04T09:02:04.158Z,24.79
2022-08-04T09:05:25.801Z,24.91
2022-08-04T09:08:51.803Z,24.43
2022-08-04T09:12:05.553Z,24.44
2022-08-04T09:15:14.782Z,23.28
2022-08-04T09:18:26.363Z,23.92
2022-08-04T09:21:37.552Z,24.08
2022-08-04T09:24:51.744Z,21.83
2022-08-04T09:27:55.885Z,23.04
2022-08-04T09:31:03.772Z,22.15
2022-08-04T09:34:12.768Z,23.31
2022-08-04T09:37:25.323Z,23.72
2022-08-04T09:40:55.616Z,22.19
2022-08-04T09:44:49.270Z,23.39
2022-08-04T09:47:39.437Z,23.65
2022-08-04T09:50:50.093Z,23.33
2022-08-04T09:54:00.634Z,24.75
2022-08-04T09:57:14.365Z,23.88
2022-08-04T10:00:20.414Z,22.79
2022-08-04T10:03:49.666Z,23.92
2022-08-04T10:07:09.579Z,23.60
2022-08-04T10:10:20.099Z,23.83
2022-08-04T10:13:39.340Z,24.08
2022-08-04T10:17:03.088Z,23.04
2022-08-04T10:20:10.788Z,23.92
2022-08-04T10:23:32.942Z,23.09
2022-08-04T10:27:00.653Z,22.28
2022-08-04T10:30:11.879Z,21.47
2022-08-04T10:33:25.615Z,24.20
2022-08-04T10:36:31.233Z,22.55
2022-08-04T10:40:13.932Z,22.27
2022-08-04T10:43:26.783Z,22.21
2022-08-04T10:46:33.479Z,23.18
2022-08-04T10:49:39.056Z,23.45
2022-08-04T10:52:47.044Z,23.94
2022-08-04T10:56:06.324Z,23.79
2022-08-04T10:59:14.191Z,23.29
2022-08-04T11:02:31.546Z,22.79
2022-08-04T11:05:44.008Z,24.16
2022-08-04T11:08:52.165Z,23.47
2022-08-04T11:12:07.941Z,23.09
2022-08-04T11:15:14.737Z,23.07
2022-08-04T11:18:26.498Z,22.62
2022-08-04T11:21:34.753Z,23.37
2022-08-04T11:24:45.599Z,23.00
2022-08-04T11:27:55.161Z,22.97
2022-08-04T11:31:05.764Z,23.17
2022-08-04T11:34:19.230Z,22.80
2022-08-04T11:37:25.550Z,23.89
2022-08-04T11:40:34.452Z,23.16
2022-08-04T11:44:01.284Z,22.54
2022-08-04T11:47:13.126Z,22.92
2022-08-04T11:50:20.380Z,21.98
2022-08-04T11:53:26.322Z,21.93
2022-08-04T11:56:38.180Z,22.34
2022-08-04T11:59:44.952Z,22.64
2022-08-04T12:03:16.383Z,22.56
2022-08-04T12:06:26.316Z,21.96
2022-08-04T12:09:37.196Z,21.31
2022-08-04T12:12:44.799Z,22.42
2022-08-04T12:15:58.395Z,23.46
2022-08-04T12:19:06.779Z,22.17
2022-08-04T12:22:16.792Z,21.38
2022-08-04T12:25:31.231Z,22.29
2022-08-04T12:28:59.543Z,22.75
2022-08-04T12:32:15.334Z,21.95
2022-08-04T12:35:25.454Z,23.38
2022-08-04T12:38:29.959Z,23.58
2022-08-04T12:41:43.140Z,24.18
2022-08-04T12:44:49.769Z,23.07
2022-08-04T12:47:58.160Z,23.09
2022-08-04T12:51:00.865Z,22.34
2022-08-04T12:54:04.555Z,22.90
2022-08-04T12:57:08.946Z,23.15
2022-08-04T13:00:12.575Z,23.40
2022-08-04T13:03:18.884Z,23.93
2022-08-04T13:06:26.475Z,24.24
2022-08-04T13:09:33.019Z,22.91
2022-08-04T13:12:36.842Z,23.18
2022-08-04T13:15:47.270Z,21.94
2022-08-04T13:19:08.258Z,21.45
2022-08-04T13:22:10.808Z,21.96
2022-08-04T13:26:40.681Z,21.48
2022-08-04T13:28:42.881Z,21.60
2022-08-04T13:31:52.938Z,22.14
2022-08-04T13:34:58.281Z,20.58
2022-08-04T13:38:01.827Z,21.82
2022-08-04T13:41:06.513Z,22.26
2022-08-04T13:44:17.604Z,23.42
2022-08-04T13:47:27.959Z,23.91
2022-08-04T13:50:35.238Z,22.54
2022-08-04T13:53:41.353Z,23.43
2022-08-04T13:56:49.551Z,23.32
2022-08-04T13:59:54.307Z,23.82
2022-08-04T14:03:01.648Z,24.40
2022-08-04T14:06:13.741Z,24.25
2022-08-04T14:09:18.528Z,25.03
2022-08-04T14:12:38.957Z,24.96
2022-08-04T14:16:02.828Z,24.53
2022-08-04T14:19:06.473Z,24.46
2022-08-04T14:22:29.300Z,24.53
2022-08-04T14:25:35.405Z,23.81
2022-08-04T14:29:25.122Z,23.87
2022-08-04T14:32:06.086Z,22.20
2022-08-04T14:35:16.078Z,23.80
2022-08-04T14:38:20.168Z,24.92
2022-08-04T14:41:26.067Z,24.64
2022-08-04T14:44:28.621Z,25.62
2022-08-04T14:47:40.749Z,24.80
2022-08-04T14:50:45.494Z,24.32
2022-08-04T14:53:49.904Z,24.32
2022-08-04T14:56:57.888Z,23.83
2022-08-04T15:00:02.473Z,24.03
2022-08-04T15:03:09.014Z,23.79
2022-08-04T15:06:15.293Z,23.28
2022-08-04T15:09:23.318Z,23.69
2022-08-04T15:12:25.990Z,24.01
2022-08-04T15:15:37.104Z,24.71
2022-08-04T15:18:41.496Z,24.27
2022-08-04T15:21:44.729Z,23.71
2022-08-04T15:24:54.954Z,24.25
2022-08-04T15:28:00.024Z,23.14
2022-08-04T15:31:11.695Z,24.31
2022-08-04T15:34:28.620Z,25.09
2022-08-04T15:37:40.156Z,24.59
2022-08-04T15:40:50.650Z,24.79
2022-08-04T15:44:18.877Z,25.29
2022-08-04T15:47:21.777Z,25.06
2022-08-04T15:50:28.611Z,25.26
2022-08-04T15:54:02.681Z,25.45
2022-08-04T15:57:01.236Z,25.24
2022-08-04T16:00:12.847Z,25.31
2022-08-04T16:03:58.448Z,23.87
2022-08-04T16:07:06.407Z,23.80
2022-08-04T16:10:36.728Z,23.54
2022-08-04T16:14:08.751Z,23.77
2022-08-04T16:17:19.047Z,24.35
2022-08-04T16:20:23.700Z,23.80
2022-08-04T16:23:59.332Z,24.22
2022-08-04T16:27:06.459Z,23.78
2022-08-04T16:30:14.415Z,23.83
2022-08-04T16:33:17.344Z,23.42
2022-08-04T16:36:56.174Z,23.34
2022-08-04T16:40:38.484Z,23.57
2022-08-04T16:43:41.632Z,23.58
2022-08-04T16:47:08.400Z,23.39
2022-08-04T16:50:07.322Z,24.40
2022-08-04T16:53:14.623Z,23.58
2022-08-04T16:56:36.782Z,24.45
2022-08-04T16:59:39.360Z,23.99
2022-08-04T17:02:42.049Z,24.70
2022-08-04T17:05:45.802Z,24.33
2022-08-04T17:08:50.458Z,24.48
2022-08-04T17:11:55.652Z,24.78
2022-08-04T17:14:58.484Z,24.71
2022-08-04T17:18:18.750Z,25.03
2022-08-04T17:21:23.692Z,25.05
2022-08-04T17:24:26.192Z,26.01
2022-08-04T17:28:10.072Z,25.76
2022-08-04T17:30:53.775Z,26.71
2022-08-04T17:33:59.206Z,26.89
2022-08-04T17:37:24.448Z,26.95
2022-08-04T17:40:26.775Z,27.30
2022-08-04T17:44:04.812Z,26.14
2022-08-04T17:47:17.472Z,26.98
2022-08-04T17:50:26.634Z,26.85
2022-08-04T17:54:01.932Z,27.73
2022-08-04T17:56:57.997Z,27.51
2022-08-04T18:00:02.907Z,27.63
2022-08-04T18:03:05.452Z,28.63
2022-08-04T18:06:12.883Z,28.35
2022-08-04T18:09:57.868Z,29.18
2022-08-04T18:12:46.883Z,29.64
2022-08-04T18:15:51.983Z,30.17
2022-08-04T18:19:09.653Z,31.51
2022-08-04T18:25:51.522Z,33.36
2022-08-04T18:28:54.706Z,34.13
2022-08-04T18:31:58.545Z,34.23
2022-08-04T18:35:05.315Z,35.24
2022-08-04T18:38:22.178Z,35.63
2022-08-04T18:41:26.552Z,36.57
2022-08-04T18:44:29.443Z,37.37
2022-08-04T18:47:59.425Z,38.52
2022-08-04T18:51:10.094Z,39.17
2022-08-04T18:54:14.133Z,40.45
2022-08-04T18:57:32.103Z,41.38
2022-08-04T19:00:45.296Z,42.31
2022-08-04T19:03:54.406Z,43.65
2022-08-04T19:07:01.017Z,44.07
2022-08-04T19:10:23.701Z,45.36
2022-08-04T19:13:34.926Z,45.21
2022-08-04T19:16:40.674Z,46.05
2022-08-04T19:19:49.438Z,47.01
2022-08-04T19:24:10.955Z,48.09
2022-08-04T19:26:27.878Z,48.01
2022-08-04T19:29:37.615Z,47.48
2022-08-04T19:32:40.755Z,46.86
2022-08-04T19:35:50.560Z,47.81
2022-08-04T19:38:53.509Z,47.86
2022-08-04T19:42:04.728Z,48.20
2022-08-04T19:45:08.820Z,48.94
2022-08-04T19:48:19.406Z,49.12
2022-08-04T19:51:23.634Z,50.28
2022-08-04T19:54:30.404Z,50.71
2022-08-04T19:57:35.654Z,51.46
2022-08-04T20:00:40.646Z,52.16
2022-08-04T20:04:09.217Z,52.53
2022-08-04T20:07:14.476Z,52.87
2022-08-04T20:10:18.395Z,53.62
2022-08-04T20:13:30.948Z,54.51
2022-08-04T20:16:41.266Z,56.44
2022-08-04T20:19:51.246Z,55.75
2022-08-04T20:22:55.514Z,55.59
2022-08-04T20:25:58.019Z,55.77
2022-08-04T20:29:00.813Z,56.82
2022-08-04T20:32:08.681Z,59.09
2022-08-04T20:35:15.900Z,67.99
2022-08-04T20:38:33.744Z,54.19
2022-08-04T20:41:37.156Z,50.37
2022-08-04T20:44:42.110Z,49.06
2022-08-04T20:47:46.004Z,46.96
2022-08-04T20:50:56.617Z,46.56
2022-08-04T20:54:01.883Z,46.96
2022-08-04T20:57:04.586Z,47.45
2022-08-04T21:00:09.867Z,48.02
2022-08-04T21:03:15.801Z,48.02
2022-08-04T21:06:18.423Z,47.35
2022-08-04T21:09:26.625Z,47.36
2022-08-04T21:12:41.189Z,48.30
2022-08-04T21:15:58.057Z,48.98
2022-08-04T21:19:04.184Z,49.70
2022-08-04T21:22:10.534Z,49.81
2022-08-04T21:25:16.209Z,49.90
2022-08-04T21:28:20.451Z,49.94
2022-08-04T21:31:23.377Z,50.15
2022-08-04T21:37:57.914Z,49.73
2022-08-04T21:41:04.996Z,50.59
2022-08-04T21:44:08.640Z,50.68
2022-08-04T21:50:33.692Z,51.39
2022-08-04T21:53:36.177Z,52.20
2022-08-04T21:56:40.221Z,52.50
2022-08-04T21:59:45.717Z,52.45
2022-08-04T22:02:52.933Z,52.81
2022-08-04T22:05:56.159Z,53.15
2022-08-04T22:08:59.072Z,53.17
2022-08-04T22:12:03.386Z,53.54
2022-08-04T22:15:22.967Z,53.81
2022-08-04T22:18:31.092Z,54.22
2022-08-04T22:21:39.251Z,54.08
2022-08-04T22:24:47.941Z,55.34
2022-08-04T22:28:01.691Z,56.09
2022-08-04T22:31:24.124Z,58.49
2022-08-04T22:34:27.889Z,58.24
2022-08-04T22:37:35.616Z,58.70
2022-08-04T22:40:38.922Z,58.38
2022-08-04T22:43:43.561Z,58.72
2022-08-04T22:46:46.070Z,59.05
2022-08-04T22:49:56.571Z,62.15
2022-08-04T22:53:11.248Z,64.88
2022-08-04T22:56:37.381Z,65.14
2022-08-04T22:59:43.447Z,65.63
2022-08-04T23:02:46.006Z,62.58
2022-08-04T23:05:50.951Z,60.97
2022-08-04T23:08:53.645Z,61.29
2022-08-04T23:12:15.088Z,61.91
2022-08-04T23:15:20.210Z,63.02
2022-08-04T23:18:23.839Z,62.40
2022-08-04T23:21:29.389Z,62.45
2022-08-04T23:24:43.720Z,63.94
2022-08-04T23:27:52.287Z,64.08
2022-08-04T23:30:56.589Z,64.65
2022-08-04T23:33:59.180Z,65.86
2022-08-04T23:37:01.695Z,67.49
2022-08-04T23:40:30.046Z,68.29
2022-08-04T23:43:49.186Z,69.77
2022-08-04T23:46:58.295Z,70.32
2022-08-04T23:50:00.937Z,71.13
2022-08-04T23:53:03.399Z,72.21
2022-08-04T23:56:07.876Z,72.76
2022-08-04T23:59:17.907Z,72.15
